Ardabil, Iran
Current Conditions -  °F | °C
As of 11:30 AM on Wednesday 22 Oct 2014 (Local Time) from OITL Reporting Station
Clear Clear  
Wind Chill: 57°   Ceiling: Unl
Heat Index: 57°   Visibility: 6mi
Dew Point: 45°   Wind: 24mph
Humidity: 63%   Direction: 210°SSW
Pressure: 30.06"   Gusts: NA
Location:  38.25°N, 48.29°E
Report Text: OITL 220830Z 21021KT CAVOK 14/07 Q1018
Loading
Personal Weather Stations






























Interactive Weather Map
Tropical Storm Tracking
New forecast layout! Learn more

10-Day Weather Forecast

Advertisements
Track Severe Weather on mobile